James L. Oberstar — WDC6154 — position and weather

sailwx.info

Track history (hours):
 
Tides and Currents Weather Stations Pressure Air Temp Water Temp Dewpoint Dewpoint Depression Visibility Wind Speed Wind Dir Waves Ship Positions

James L. Oberstar

Owner: Destin Trading Corporation, harahan, LA. More information available from US FCC via Universal Licensing System and Coast Guard Vessel Documentation Center.

Last reported at 2015-May-22 15:26 UTC. Time now 2015-May-22 22:06 UTC.
Position N 29°57' W 090°02'.

Length 26 m; draft 2.8 m.

Type: Towing. MMSI: 367052120.

Date/timePositionNaut miles runAvg speedWind from/ knotsBaromVisibWave heightAir tempDewpointWater temp
2015-May-22 15:26N 29°57' W 090°02'3 3.8
2015-May-22 14:32N 29°55' W 089°59'7 0.6
2015-May-22 01:25N 29°50' W 090°04'3 3.3
2015-May-22 00:29N 29°47' W 090°04'27 3.6
2015-May-21 17:07N 29°34' W 090°31'3 5.5
2015-May-21 16:33N 29°34' W 090°35'4 3.6
2015-May-21 15:33N 29°35' W 090°38'4 3.7
2015-May-21 14:33N 29°37' W 090°43'3 2.6
2015-May-21 13:31N 29°34' W 090°43'1 1.0
2015-May-21 12:31N 29°34' W 090°45'1 1.1
2015-May-21 11:32N 29°33' W 090°45'2 2.3
2015-May-21 10:33N 29°32' W 090°48'7 6.4
2015-May-21 09:27N 29°34' W 090°56'  
2015-May-18 21:24N 29°29' W 094°52'6 6.9
2015-May-18 20:33N 29°34' W 094°55'6 6.1
2015-May-18 19:33N 29°39' W 094°58'6 6.2
2015-May-18 18:33N 29°44' W 095°03'4 3.0
2015-May-18 17:20N 29°47' W 095°04'0 0.1
2015-May-18 16:30N 29°47' W 095°04'0 0.1
2015-May-18 15:33N 29°47' W 095°05'0 0.1
2015-May-18 14:32N 29°47' W 095°04'0 0.0
2015-May-18 13:33N 29°47' W 095°04'0 0.0
2015-May-18 12:28N 29°47' W 095°04'0 0.1
2015-May-18 11:30N 29°47' W 095°04'0 0.1
2015-May-18 10:29N 29°47' W 095°05'0 0.0
2015-May-18 04:32N 29°47' W 095°05'0 0.0
2015-May-18 03:29N 29°47' W 095°05'0 0.0
2015-May-18 02:23N 29°47' W 095°05'1 0.7
2015-May-18 01:33N 29°47' W 095°04'0 0.0
2015-May-18 00:30N 29°47' W 095°04'0 0.0
2015-May-17 23:33N 29°47' W 095°04'0 0.4
2015-May-17 22:27N 29°47' W 095°04'0 0.1
2015-May-17 21:33N 29°47' W 095°05'0 0.0
2015-May-17 20:33N 29°47' W 095°05'0 0.0
2015-May-17 19:24N 29°47' W 095°05'0 0.0
2015-May-17 18:33N 29°47' W 095°05'0 0.0
2015-May-17 17:33N 29°47' W 095°05'0 0.0
2015-May-17 16:33N 29°47' W 095°05'0 0.1
2015-May-17 15:32N 29°47' W 095°05'0 0.0
2015-May-17 14:32N 29°47' W 095°05'0 0.0
2015-May-17 13:29N 29°47' W 095°05'0 0.1
2015-May-17 12:31N 29°47' W 095°05'0 0.1
2015-May-17 11:28N 29°47' W 095°05'0 0.1
2015-May-17 10:33N 29°47' W 095°05'0 0.1
2015-May-17 09:32N 29°47' W 095°05'0 0.0
2015-May-17 08:29N 29°47' W 095°05'0 0.0
2015-May-17 07:32N 29°47' W 095°05'0 0.0
2015-May-17 06:14N 29°47' W 095°05'0 0.0
2015-May-17 05:32N 29°47' W 095°05'0 0.0
2015-May-17 04:08N 29°47' W 095°05'0 0.0
2015-May-17 03:32N 29°47' W 095°05'0 0.0
2015-May-17 02:32N 29°47' W 095°05'0 0.0
2015-May-17 01:32N 29°47' W 095°05'0 0.2
2015-May-17 00:33N 29°47' W 095°04'5 4.6
2015-May-16 23:33N 29°44' W 095°08'0 0.1
2015-May-16 22:33N 29°44' W 095°08'1 1.2
2015-May-16 21:33N 29°44' W 095°07'4 3.3
2015-May-16 20:25N 29°47' W 095°04'0 0.0
2015-May-16 19:31N 29°47' W 095°04'0 0.0
2015-May-16 18:31N 29°47' W 095°04'0 0.0
2015-May-16 17:33N 29°47' W 095°04'0 0.3
2015-May-16 16:33N 29°47' W 095°05'0 0.1
2015-May-16 15:28N 29°47' W 095°05'0 0.5
2015-May-16 14:34N 29°47' W 095°04'4 4.4
2015-May-16 13:33N 29°44' W 095°08'0 0.3
2015-May-16 12:32N 29°44' W 095°08'0 0.0
2015-May-16 11:32N 29°44' W 095°08'0 0.0
2015-May-16 10:30N 29°44' W 095°08'0 0.0
2015-May-16 09:33N 29°44' W 095°08'0 0.0
2015-May-16 08:33N 29°44' W 095°08'0 0.0
2015-May-16 07:33N 29°44' W 095°08'0 0.0
2015-May-16 06:33N 29°44' W 095°08'0 0.0
2015-May-16 05:33N 29°44' W 095°08'0 0.0
2015-May-16 04:33N 29°44' W 095°08'4 3.6
2015-May-16 03:33N 29°46' W 095°04'5 5.4
2015-May-16 02:33N 29°42' W 094°60'7 6.6
2015-May-16 01:33N 29°36' W 094°57'7 6.9
2015-May-16 00:33N 29°30' W 094°52'8 6.7
2015-May-15 23:20N 29°23' W 094°48'  
2015-May-13 08:12N 29°27' W 094°42'7 1.4
2015-May-13 03:13N 29°24' W 094°49'6 7.6
2015-May-13 02:26N 29°30' W 094°52'6 7.2
2015-May-13 01:33N 29°35' W 094°56'8 7.6
2015-May-13 00:33N 29°42' W 095°00'6 5.5
2015-May-12 23:29N 29°45' W 095°06'2 0.2
2015-May-12 16:33N 29°44' W 095°08'  
Track history (hours):
 
Tides and Currents Weather Stations Pressure Air Temp Water Temp Dewpoint Dewpoint Depression Visibility Wind Speed Wind Dir Waves Ship Positions

James L. Oberstar

Owner: Destin Trading Corporation, harahan, LA. More information available from US FCC via Universal Licensing System and Coast Guard Vessel Documentation Center.

Last reported at 2015-May-22 15:26 UTC. Time now 2015-May-22 22:06 UTC.
Position N 29°57' W 090°02'.

Length 26 m; draft 2.8 m.

Type: Towing. MMSI: 367052120.

Date/timePositionNaut miles runAvg speedWind from/ knotsBaromVisibWave heightAir tempDewpointWater temp
2015-May-22 15:26N 29°57' W 090°02'3 3.8
2015-May-22 14:32N 29°55' W 089°59'7 0.6
2015-May-22 01:25N 29°50' W 090°04'3 3.3
2015-May-22 00:29N 29°47' W 090°04'27 3.6
2015-May-21 17:07N 29°34' W 090°31'3 5.5
2015-May-21 16:33N 29°34' W 090°35'4 3.6
2015-May-21 15:33N 29°35' W 090°38'4 3.7
2015-May-21 14:33N 29°37' W 090°43'3 2.6
2015-May-21 13:31N 29°34' W 090°43'1 1.0
2015-May-21 12:31N 29°34' W 090°45'1 1.1
2015-May-21 11:32N 29°33' W 090°45'2 2.3
2015-May-21 10:33N 29°32' W 090°48'7 6.4
2015-May-21 09:27N 29°34' W 090°56'  
2015-May-18 21:24N 29°29' W 094°52'6 6.9
2015-May-18 20:33N 29°34' W 094°55'6 6.1
2015-May-18 19:33N 29°39' W 094°58'6 6.2
2015-May-18 18:33N 29°44' W 095°03'4 3.0
2015-May-18 17:20N 29°47' W 095°04'0 0.1
2015-May-18 16:30N 29°47' W 095°04'0 0.1
2015-May-18 15:33N 29°47' W 095°05'0 0.1
2015-May-18 14:32N 29°47' W 095°04'0 0.0
2015-May-18 13:33N 29°47' W 095°04'0 0.0
2015-May-18 12:28N 29°47' W 095°04'0 0.1
2015-May-18 11:30N 29°47' W 095°04'0 0.1
2015-May-18 10:29N 29°47' W 095°05'0 0.0
2015-May-18 04:32N 29°47' W 095°05'0 0.0
2015-May-18 03:29N 29°47' W 095°05'0 0.0
2015-May-18 02:23N 29°47' W 095°05'1 0.7
2015-May-18 01:33N 29°47' W 095°04'0 0.0
2015-May-18 00:30N 29°47' W 095°04'0 0.0
2015-May-17 23:33N 29°47' W 095°04'0 0.4
2015-May-17 22:27N 29°47' W 095°04'0 0.1
2015-May-17 21:33N 29°47' W 095°05'0 0.0
2015-May-17 20:33N 29°47' W 095°05'0 0.0
2015-May-17 19:24N 29°47' W 095°05'0 0.0
2015-May-17 18:33N 29°47' W 095°05'0 0.0
2015-May-17 17:33N 29°47' W 095°05'0 0.0
2015-May-17 16:33N 29°47' W 095°05'0 0.1
2015-May-17 15:32N 29°47' W 095°05'0 0.0
2015-May-17 14:32N 29°47' W 095°05'0 0.0
2015-May-17 13:29N 29°47' W 095°05'0 0.1
2015-May-17 12:31N 29°47' W 095°05'0 0.1
2015-May-17 11:28N 29°47' W 095°05'0 0.1
2015-May-17 10:33N 29°47' W 095°05'0 0.1
2015-May-17 09:32N 29°47' W 095°05'0 0.0
2015-May-17 08:29N 29°47' W 095°05'0 0.0
2015-May-17 07:32N 29°47' W 095°05'0 0.0
2015-May-17 06:14N 29°47' W 095°05'0 0.0
2015-May-17 05:32N 29°47' W 095°05'0 0.0
2015-May-17 04:08N 29°47' W 095°05'0 0.0
2015-May-17 03:32N 29°47' W 095°05'0 0.0
2015-May-17 02:32N 29°47' W 095°05'0 0.0
2015-May-17 01:32N 29°47' W 095°05'0 0.2
2015-May-17 00:33N 29°47' W 095°04'5 4.6
2015-May-16 23:33N 29°44' W 095°08'0 0.1
2015-May-16 22:33N 29°44' W 095°08'1 1.2
2015-May-16 21:33N 29°44' W 095°07'4 3.3
2015-May-16 20:25N 29°47' W 095°04'0 0.0
2015-May-16 19:31N 29°47' W 095°04'0 0.0
2015-May-16 18:31N 29°47' W 095°04'0 0.0
2015-May-16 17:33N 29°47' W 095°04'0 0.3
2015-May-16 16:33N 29°47' W 095°05'0 0.1
2015-May-16 15:28N 29°47' W 095°05'0 0.5
2015-May-16 14:34N 29°47' W 095°04'4 4.4
2015-May-16 13:33N 29°44' W 095°08'0 0.3
2015-May-16 12:32N 29°44' W 095°08'0 0.0
2015-May-16 11:32N 29°44' W 095°08'0 0.0
2015-May-16 10:30N 29°44' W 095°08'0 0.0
2015-May-16 09:33N 29°44' W 095°08'0 0.0
2015-May-16 08:33N 29°44' W 095°08'0 0.0
2015-May-16 07:33N 29°44' W 095°08'0 0.0
2015-May-16 06:33N 29°44' W 095°08'0 0.0
2015-May-16 05:33N 29°44' W 095°08'0 0.0
2015-May-16 04:33N 29°44' W 095°08'4 3.6
2015-May-16 03:33N 29°46' W 095°04'5 5.4
2015-May-16 02:33N 29°42' W 094°60'7 6.6
2015-May-16 01:33N 29°36' W 094°57'7 6.9
2015-May-16 00:33N 29°30' W 094°52'8 6.7
2015-May-15 23:20N 29°23' W 094°48'  
2015-May-13 08:12N 29°27' W 094°42'7 1.4
2015-May-13 03:13N 29°24' W 094°49'6 7.6
2015-May-13 02:26N 29°30' W 094°52'6 7.2
2015-May-13 01:33N 29°35' W 094°56'8 7.6
2015-May-13 00:33N 29°42' W 095°00'6 5.5
2015-May-12 23:29N 29°45' W 095°06'2 0.2
2015-May-12 16:33N 29°44' W 095°08'  

Dump ship's entire track history